createdAt,value
2023-03-16T00:01:45.835Z,8.60
2023-03-16T00:06:48.547Z,11.30
2023-03-16T00:11:51.261Z,10.85
2023-03-16T00:16:55.316Z,8.23
2023-03-16T00:21:58.250Z,10.30
2023-03-16T00:27:01.020Z,14.07
2023-03-16T00:32:05.603Z,6.60
2023-03-16T00:37:08.563Z,8.23
2023-03-16T00:42:12.488Z,9.93
2023-03-16T00:47:16.643Z,12.60
2023-03-16T00:52:20.067Z,9.52
2023-03-16T00:57:25.102Z,9.07
2023-03-16T01:02:29.263Z,11.52
2023-03-16T01:07:32.301Z,9.50
2023-03-16T01:12:35.195Z,8.55
2023-03-16T01:17:39.337Z,12.13
2023-03-16T01:22:42.274Z,10.82
2023-03-16T01:27:45.570Z,12.32
2023-03-16T01:32:49.795Z,14.95
2023-03-16T01:37:52.560Z,8.35
2023-03-16T01:43:02.860Z,8.85
2023-03-16T01:48:10.285Z,9.63
2023-03-16T01:53:13.297Z,14.05
2023-03-16T01:58:16.664Z,12.63
2023-03-16T02:03:22.587Z,9.32
2023-03-16T02:08:31.897Z,9.07
2023-03-16T02:13:36.824Z,9.90
2023-03-16T02:18:41.944Z,10.93
2023-03-16T02:23:46.297Z,11.55
2023-03-16T02:28:59.419Z,12.20
2023-03-16T02:34:04.843Z,10.70
2023-03-16T02:39:08.107Z,11.98
2023-03-16T02:44:26.122Z,8.75
2023-03-16T02:49:37.508Z,8.98
2023-03-16T02:54:40.722Z,9.18
2023-03-16T02:59:45.258Z,9.68
2023-03-16T03:04:49.490Z,7.97
2023-03-16T03:09:53.566Z,10.82
2023-03-16T03:14:57.289Z,6.53
2023-03-16T03:20:07.863Z,12.90
2023-03-16T03:25:10.905Z,7.72
2023-03-16T03:30:16.616Z,9.52
2023-03-16T03:35:21.544Z,6.70
2023-03-16T03:40:24.676Z,11.70
2023-03-16T03:45:34.042Z,11.20
2023-03-16T03:50:40.519Z,10.98
2023-03-16T03:56:00.795Z,8.00
2023-03-16T04:01:03.599Z,7.75
2023-03-16T04:06:09.812Z,8.40
2023-03-16T04:11:12.722Z,5.63
2023-03-16T04:16:17.186Z,9.30
2023-03-16T04:21:25.670Z,7.20
2023-03-16T04:26:28.433Z,6.07
2023-03-16T04:31:31.290Z,7.07
2023-03-16T04:36:35.682Z,5.72
2023-03-16T04:41:38.701Z,8.32
2023-03-16T04:46:53.576Z,7.28
2023-03-16T04:51:59.549Z,7.30
2023-03-16T04:57:03.580Z,8.23
2023-03-16T05:02:16.951Z,11.38
2023-03-16T05:07:21.447Z,8.57
2023-03-16T05:12:29.025Z,7.18
2023-03-16T05:17:36.520Z,5.90
2023-03-16T05:22:44.008Z,9.40
2023-03-16T05:27:54.954Z,6.25
2023-03-16T05:33:21.570Z,4.85
2023-03-16T05:38:29.800Z,5.33
2023-03-16T05:43:34.332Z,9.75
2023-03-16T05:48:37.968Z,7.28
2023-03-16T05:53:46.716Z,6.65
2023-03-16T05:58:58.346Z,6.78
2023-03-16T06:04:03.096Z,7.38
2023-03-16T06:09:11.207Z,5.65
2023-03-16T06:14:14.897Z,5.90
2023-03-16T06:19:18.382Z,6.20
2023-03-16T06:24:25.333Z,6.97
2023-03-16T06:29:28.618Z,9.18
2023-03-16T06:34:31.747Z,5.75
2023-03-16T06:39:36.222Z,7.88
2023-03-16T06:44:39.179Z,8.77
2023-03-16T06:49:46.888Z,7.70
2023-03-16T06:54:58.163Z,7.88
2023-03-16T07:00:03.934Z,7.07
2023-03-16T07:05:07.529Z,5.82
2023-03-16T07:10:14.563Z,8.95
2023-03-16T07:15:17.558Z,7.65
2023-03-16T07:20:23.514Z,8.57
2023-03-16T07:25:27.950Z,6.47
2023-03-16T07:30:31.248Z,7.55
2023-03-16T07:35:34.571Z,5.38
2023-03-16T07:40:39.285Z,9.63
2023-03-16T07:45:50.452Z,8.73
2023-03-16T07:50:55.189Z,10.23
2023-03-16T07:56:00.490Z,7.63
2023-03-16T08:01:04.109Z,5.93
2023-03-16T08:06:07.554Z,8.00
2023-03-16T08:11:12.890Z,8.95
2023-03-16T08:16:26.460Z,6.28
2023-03-16T08:21:30.258Z,7.82
2023-03-16T08:26:34.835Z,8.55
2023-03-16T08:31:39.545Z,6.85
2023-03-16T08:36:47.543Z,8.38
2023-03-16T08:41:52.088Z,6.47
2023-03-16T08:47:02.497Z,7.97
2023-03-16T08:52:06.260Z,9.05
2023-03-16T08:57:11.001Z,7.05
2023-03-16T09:02:15.085Z,7.05
2023-03-16T09:07:18.708Z,7.07
2023-03-16T09:12:23.441Z,7.20
2023-03-16T09:17:26.995Z,5.80
2023-03-16T09:22:30.093Z,6.97
2023-03-16T09:27:35.044Z,8.40
2023-03-16T09:32:38.321Z,5.57
2023-03-16T09:37:45.625Z,9.07
2023-03-16T09:43:20.037Z,6.97
2023-03-16T09:48:25.141Z,8.48
2023-03-16T09:53:31.271Z,4.35
2023-03-16T09:58:36.550Z,5.28
2023-03-16T10:04:03.085Z,3.78
2023-03-16T10:09:19.122Z,5.13
2023-03-16T10:14:28.317Z,5.03
2023-03-16T10:19:38.417Z,3.10
2023-03-16T10:24:48.523Z,1.90
2023-03-16T10:29:52.680Z,6.20
2023-03-16T10:34:59.284Z,5.25
2023-03-16T10:40:05.038Z,4.90
2023-03-16T10:45:23.785Z,4.75
2023-03-16T10:55:35.131Z,3.25
2023-03-16T11:00:45.362Z,1.25
2023-03-16T11:05:48.111Z,2.67
2023-03-16T11:10:58.671Z,2.65
2023-03-16T11:16:07.867Z,3.40
2023-03-16T11:21:18.354Z,3.15
2023-03-16T11:26:27.711Z,4.55
2023-03-16T11:31:43.388Z,2.40
2023-03-16T11:36:51.623Z,4.35
2023-03-16T11:42:04.964Z,4.00
2023-03-16T11:47:30.055Z,3.53
2023-03-16T11:52:46.832Z,1.88
2023-03-16T11:58:01.355Z,6.35
2023-03-16T12:03:45.829Z,4.93
2023-03-16T12:09:08.906Z,3.22
2023-03-16T12:14:21.717Z,3.15
2023-03-16T12:19:33.600Z,2.40
2023-03-16T12:24:42.446Z,2.00
2023-03-16T12:29:56.862Z,3.47
2023-03-16T12:35:07.365Z,3.17
2023-03-16T12:40:25.957Z,3.13
2023-03-16T12:45:35.134Z,3.35
2023-03-16T12:50:50.466Z,2.90
2023-03-16T12:55:53.509Z,3.95
2023-03-16T13:00:59.154Z,2.63
2023-03-16T13:06:03.536Z,2.17
2023-03-16T13:11:09.558Z,3.83
2023-03-16T13:16:25.129Z,2.30
2023-03-16T13:21:41.658Z,2.33
2023-03-16T13:26:48.131Z,4.78
2023-03-16T13:31:52.426Z,3.30
2023-03-16T13:36:58.777Z,3.55
2023-03-16T13:42:05.037Z,3.55
2023-03-16T13:47:08.643Z,4.90
2023-03-16T13:52:20.750Z,3.35
2023-03-16T13:57:25.971Z,2.30
2023-03-16T14:02:29.184Z,4.22
2023-03-16T14:07:38.153Z,4.10
2023-03-16T14:12:52.439Z,4.22
2023-03-16T14:18:03.433Z,2.53
2023-03-16T14:23:18.502Z,3.22
2023-03-16T14:28:28.070Z,2.58
2023-03-16T14:33:32.505Z,3.42
2023-03-16T14:38:38.188Z,3.40
2023-03-16T14:43:47.730Z,2.75
2023-03-16T14:48:50.504Z,2.58
2023-03-16T14:53:54.579Z,5.75
2023-03-16T14:58:57.307Z,5.03
2023-03-16T15:04:00.051Z,3.03
2023-03-16T15:09:04.346Z,2.17
2023-03-16T15:14:35.357Z,2.75
2023-03-16T15:19:38.202Z,3.03
2023-03-16T15:24:42.505Z,4.82
2023-03-16T15:29:45.249Z,4.60
2023-03-16T15:34:48.018Z,6.35
2023-03-16T15:39:52.306Z,3.42
2023-03-16T15:44:55.283Z,3.20
2023-03-16T15:49:58.000Z,3.45
2023-03-16T15:55:07.659Z,1.85
2023-03-16T16:00:34.948Z,2.47
2023-03-16T16:05:37.814Z,3.88
2023-03-16T16:10:43.085Z,3.67
2023-03-16T16:15:47.174Z,1.75
2023-03-16T16:20:51.349Z,1.65
2023-03-16T16:25:58.501Z,3.58
2023-03-16T16:31:02.431Z,5.72
2023-03-16T16:36:07.470Z,4.07
2023-03-16T16:41:25.140Z,3.13
2023-03-16T16:46:29.621Z,3.60
2023-03-16T16:51:33.151Z,3.38
2023-03-16T16:56:38.608Z,3.53
2023-03-16T17:01:41.883Z,2.63
2023-03-16T17:06:44.947Z,3.40
2023-03-16T17:11:49.394Z,4.70
2023-03-16T17:16:53.350Z,1.40
2023-03-16T17:21:58.376Z,2.70
2023-03-16T17:27:04.542Z,3.20
2023-03-16T17:32:19.268Z,1.15
2023-03-16T17:37:23.199Z,1.42
2023-03-16T17:42:27.465Z,2.33
2023-03-16T17:47:33.155Z,2.03
2023-03-16T17:52:37.154Z,2.75
2023-03-16T17:57:41.434Z,2.72
2023-03-16T18:02:50.595Z,2.95
2023-03-16T18:07:54.542Z,3.03
2023-03-16T18:13:02.454Z,1.60
2023-03-16T18:18:07.771Z,4.18
2023-03-16T18:23:16.370Z,4.40
2023-03-16T18:28:21.825Z,3.65
2023-03-16T18:33:28.600Z,4.22
2023-03-16T18:38:33.695Z,5.80
2023-03-16T18:43:37.796Z,5.35
2023-03-16T18:48:40.633Z,4.75
2023-03-16T18:53:44.057Z,4.05
2023-03-16T18:58:48.582Z,4.15
2023-03-16T19:03:52.325Z,3.80
2023-03-16T19:08:55.863Z,3.10
2023-03-16T19:14:00.205Z,4.03
2023-03-16T19:19:03.257Z,5.57
2023-03-16T19:24:08.393Z,4.57
2023-03-16T19:29:15.885Z,3.80
2023-03-16T19:34:19.113Z,4.20
2023-03-16T19:39:21.972Z,6.60
2023-03-16T19:44:28.482Z,3.47
2023-03-16T19:49:31.733Z,3.60
2023-03-16T19:54:35.088Z,6.85
2023-03-16T19:59:39.407Z,6.07
2023-03-16T20:04:42.257Z,3.38
2023-03-16T20:09:45.339Z,4.07
2023-03-16T20:14:51.453Z,5.95
2023-03-16T20:19:54.294Z,5.22
2023-03-16T20:24:57.998Z,4.30
2023-03-16T20:30:02.823Z,4.45
2023-03-16T20:35:14.565Z,5.65
2023-03-16T20:40:18.518Z,5.50
2023-03-16T20:45:25.698Z,6.82
2023-03-16T20:50:31.421Z,5.90
2023-03-16T20:55:34.270Z,5.47
2023-03-16T21:00:40.365Z,3.92
2023-03-16T21:05:43.340Z,4.10
2023-03-16T21:10:48.514Z,4.38
2023-03-16T21:15:53.392Z,3.88
2023-03-16T21:20:56.996Z,3.25
2023-03-16T21:26:03.662Z,3.60
2023-03-16T21:31:08.396Z,6.75
2023-03-16T21:36:15.756Z,2.42
2023-03-16T21:41:18.650Z,5.25
2023-03-16T21:46:25.488Z,3.92
2023-03-16T21:51:31.336Z,3.40
2023-03-16T21:56:34.212Z,3.58
2023-03-16T22:01:50.949Z,5.35
2023-03-16T22:06:57.372Z,3.65
2023-03-16T22:12:00.382Z,4.53
2023-03-16T22:17:05.387Z,4.25
2023-03-16T22:22:14.161Z,4.35
2023-03-16T22:27:21.949Z,3.38
2023-03-16T22:32:26.127Z,3.85
2023-03-16T22:37:29.941Z,3.03
2023-03-16T22:42:35.810Z,2.72
2023-03-16T22:47:40.040Z,3.47
2023-03-16T22:52:43.537Z,3.92
2023-03-16T22:57:47.548Z,2.55
2023-03-16T23:02:51.735Z,3.25
2023-03-16T23:07:55.534Z,2.97
2023-03-16T23:13:00.517Z,6.88
2023-03-16T23:18:05.146Z,4.35
2023-03-16T23:23:07.851Z,3.38
2023-03-16T23:28:13.204Z,4.53
2023-03-16T23:33:17.618Z,6.60
2023-03-16T23:38:21.149Z,2.80
2023-03-16T23:43:23.876Z,3.83
2023-03-16T23:48:28.085Z,4.88
2023-03-16T23:53:31.097Z,3.05
2023-03-16T23:58:33.867Z,4.05
